sensor_id;sensor_type;location;lat;lon;timestamp;temperature;humidity
54190;DHT22;40340;53.208;6.582;2022-09-27T00:02:14;10.40;99.90
54190;DHT22;40340;53.208;6.582;2022-09-27T00:04:39;10.70;99.90
54190;DHT22;40340;53.208;6.582;2022-09-27T00:07:05;10.40;99.90
54190;DHT22;40340;53.208;6.582;2022-09-27T00:09:32;10.30;99.90
54190;DHT22;40340;53.208;6.582;2022-09-27T00:11:57;10.30;99.90
54190;DHT22;40340;53.208;6.582;2022-09-27T00:14:23;10.30;99.90
54190;DHT22;40340;53.208;6.582;2022-09-27T00:16:49;10.30;99.90
54190;DHT22;40340;53.208;6.582;2022-09-27T00:19:18;10.40;99.90
54190;DHT22;40340;53.208;6.582;2022-09-27T00:21:44;10.40;99.90
54190;DHT22;40340;53.208;6.582;2022-09-27T00:24:12;10.30;99.90
54190;DHT22;40340;53.208;6.582;2022-09-27T00:26:38;10.30;99.90
54190;DHT22;40340;53.208;6.582;2022-09-27T00:29:03;10.30;99.90
54190;DHT22;40340;53.208;6.582;2022-09-27T00:31:30;10.30;99.90
54190;DHT22;40340;53.208;6.582;2022-09-27T00:33:58;10.30;99.90
54190;DHT22;40340;53.208;6.582;2022-09-27T00:36:25;10.30;99.90
54190;DHT22;40340;53.208;6.582;2022-09-27T00:38:51;10.30;99.90
54190;DHT22;40340;53.208;6.582;2022-09-27T00:41:26;10.30;99.90
54190;DHT22;40340;53.208;6.582;2022-09-27T00:44:00;10.30;99.90
54190;DHT22;40340;53.208;6.582;2022-09-27T00:49:12;10.30;99.90
54190;DHT22;40340;53.208;6.582;2022-09-27T00:51:41;10.30;99.90
54190;DHT22;40340;53.208;6.582;2022-09-27T00:54:11;10.30;99.90
54190;DHT22;40340;53.208;6.582;2022-09-27T00:56:37;10.20;99.90
54190;DHT22;40340;53.208;6.582;2022-09-27T00:59:18;10.20;99.90
54190;DHT22;40340;53.208;6.582;2022-09-27T01:01:45;10.20;99.90
54190;DHT22;40340;53.208;6.582;2022-09-27T01:04:14;10.20;99.90
54190;DHT22;40340;53.208;6.582;2022-09-27T01:06:42;10.20;99.90
54190;DHT22;40340;53.208;6.582;2022-09-27T01:09:09;10.10;99.90
54190;DHT22;40340;53.208;6.582;2022-09-27T01:29:08;9.90;99.90
54190;DHT22;40340;53.208;6.582;2022-09-27T01:34:57;10.00;99.90
54190;DHT22;40340;53.208;6.582;2022-09-27T01:37:48;9.90;99.90
54190;DHT22;40340;53.208;6.582;2022-09-27T01:40:23;10.00;99.90
54190;DHT22;40340;53.208;6.582;2022-09-27T01:43:05;10.10;99.90
54190;DHT22;40340;53.208;6.582;2022-09-27T01:45:37;10.00;99.90
54190;DHT22;40340;53.208;6.582;2022-09-27T01:48:16;10.00;99.90
54190;DHT22;40340;53.208;6.582;2022-09-27T01:50:51;10.00;99.90
54190;DHT22;40340;53.208;6.582;2022-09-27T01:53:28;10.10;99.90
54190;DHT22;40340;53.208;6.582;2022-09-27T01:55:56;10.10;99.90
54190;DHT22;40340;53.208;6.582;2022-09-27T02:01:05;10.10;99.90
54190;DHT22;40340;53.208;6.582;2022-09-27T02:03:36;10.10;99.90
54190;DHT22;40340;53.208;6.582;2022-09-27T02:06:12;10.10;99.90
54190;DHT22;40340;53.208;6.582;2022-09-27T02:08:49;10.00;99.90
54190;DHT22;40340;53.208;6.582;2022-09-27T02:11:16;10.00;99.90
54190;DHT22;40340;53.208;6.582;2022-09-27T02:14:02;10.00;99.90
54190;DHT22;40340;53.208;6.582;2022-09-27T02:16:44;10.00;99.90
54190;DHT22;40340;53.208;6.582;2022-09-27T02:24:32;9.90;99.90
54190;DHT22;40340;53.208;6.582;2022-09-27T02:27:27;9.80;99.90
54190;DHT22;40340;53.208;6.582;2022-09-27T02:30:13;9.80;99.90
54190;DHT22;40340;53.208;6.582;2022-09-27T02:32:40;9.70;99.90
54190;DHT22;40340;53.208;6.582;2022-09-27T02:35:14;9.70;99.90
54190;DHT22;40340;53.208;6.582;2022-09-27T02:37:41;9.70;99.90
54190;DHT22;40340;53.208;6.582;2022-09-27T02:40:07;9.60;99.90
54190;DHT22;40340;53.208;6.582;2022-09-27T02:42:34;9.60;99.90
54190;DHT22;40340;53.208;6.582;2022-09-27T02:45:00;9.60;99.90
54190;DHT22;40340;53.208;6.582;2022-09-27T03:03:31;9.60;99.90
54190;DHT22;40340;53.208;6.582;2022-09-27T03:06:08;9.60;99.90
54190;DHT22;40340;53.208;6.582;2022-09-27T03:08:36;9.60;99.90
54190;DHT22;40340;53.208;6.582;2022-09-27T03:11:02;9.60;99.90
54190;DHT22;40340;53.208;6.582;2022-09-27T03:13:28;9.60;99.90
54190;DHT22;40340;53.208;6.582;2022-09-27T03:15:54;9.60;99.90
54190;DHT22;40340;53.208;6.582;2022-09-27T03:18:20;9.50;99.90
54190;DHT22;40340;53.208;6.582;2022-09-27T03:20:45;9.60;99.90
54190;DHT22;40340;53.208;6.582;2022-09-27T03:23:11;9.50;99.90
54190;DHT22;40340;53.208;6.582;2022-09-27T03:25:37;9.50;99.90
54190;DHT22;40340;53.208;6.582;2022-09-27T03:28:02;9.50;99.90
54190;DHT22;40340;53.208;6.582;2022-09-27T03:30:28;9.50;99.90
54190;DHT22;40340;53.208;6.582;2022-09-27T03:32:54;9.50;99.90
54190;DHT22;40340;53.208;6.582;2022-09-27T03:35:19;9.50;99.90
54190;DHT22;40340;53.208;6.582;2022-09-27T03:37:45;9.50;99.90
54190;DHT22;40340;53.208;6.582;2022-09-27T03:40:11;9.50;99.90
54190;DHT22;40340;53.208;6.582;2022-09-27T03:42:37;9.40;99.90
54190;DHT22;40340;53.208;6.582;2022-09-27T03:45:03;9.40;99.90
54190;DHT22;40340;53.208;6.582;2022-09-27T03:47:29;9.40;99.90
54190;DHT22;40340;53.208;6.582;2022-09-27T03:49:55;9.60;99.90
54190;DHT22;40340;53.208;6.582;2022-09-27T03:52:20;9.40;99.90
54190;DHT22;40340;53.208;6.582;2022-09-27T03:54:46;9.40;99.90
54190;DHT22;40340;53.208;6.582;2022-09-27T03:57:12;9.40;99.90
54190;DHT22;40340;53.208;6.582;2022-09-27T03:59:38;9.40;99.90
54190;DHT22;40340;53.208;6.582;2022-09-27T04:02:03;9.40;99.90
54190;DHT22;40340;53.208;6.582;2022-09-27T04:04:29;9.40;99.90
54190;DHT22;40340;53.208;6.582;2022-09-27T04:06:55;9.40;99.90
54190;DHT22;40340;53.208;6.582;2022-09-27T04:09:23;9.40;99.90
54190;DHT22;40340;53.208;6.582;2022-09-27T04:11:49;9.50;99.90
54190;DHT22;40340;53.208;6.582;2022-09-27T04:14:15;9.50;99.90
54190;DHT22;40340;53.208;6.582;2022-09-27T04:16:40;9.50;99.90
54190;DHT22;40340;53.208;6.582;2022-09-27T04:19:07;9.50;99.90
54190;DHT22;40340;53.208;6.582;2022-09-27T04:21:33;9.50;99.90
54190;DHT22;40340;53.208;6.582;2022-09-27T04:23:59;9.40;99.90
54190;DHT22;40340;53.208;6.582;2022-09-27T04:26:24;9.40;99.90
54190;DHT22;40340;53.208;6.582;2022-09-27T04:28:51;9.50;99.90
54190;DHT22;40340;53.208;6.582;2022-09-27T04:31:17;9.40;99.90
54190;DHT22;40340;53.208;6.582;2022-09-27T04:33:43;9.50;99.90
54190;DHT22;40340;53.208;6.582;2022-09-27T04:36:22;9.50;99.90
54190;DHT22;40340;53.208;6.582;2022-09-27T04:38:52;9.50;99.90
54190;DHT22;40340;53.208;6.582;2022-09-27T04:41:19;9.50;99.90
54190;DHT22;40340;53.208;6.582;2022-09-27T04:43:46;9.50;99.90
54190;DHT22;40340;53.208;6.582;2022-09-27T04:46:12;9.40;99.90
54190;DHT22;40340;53.208;6.582;2022-09-27T04:48:38;9.40;99.90
54190;DHT22;40340;53.208;6.582;2022-09-27T04:51:04;9.40;99.90
54190;DHT22;40340;53.208;6.582;2022-09-27T04:53:30;9.40;99.90
54190;DHT22;40340;53.208;6.582;2022-09-27T04:55:56;9.40;99.90
54190;DHT22;40340;53.208;6.582;2022-09-27T04:58:22;9.40;99.90
54190;DHT22;40340;53.208;6.582;2022-09-27T05:00:48;9.40;99.90
54190;DHT22;40340;53.208;6.582;2022-09-27T05:03:17;9.40;99.90
54190;DHT22;40340;53.208;6.582;2022-09-27T05:05:43;9.40;99.90
54190;DHT22;40340;53.208;6.582;2022-09-27T05:08:08;9.40;99.90
54190;DHT22;40340;53.208;6.582;2022-09-27T05:10:35;9.40;99.90
54190;DHT22;40340;53.208;6.582;2022-09-27T05:13:01;9.40;99.90
54190;DHT22;40340;53.208;6.582;2022-09-27T05:15:26;9.40;99.90
54190;DHT22;40340;53.208;6.582;2022-09-27T05:17:52;9.40;99.90
54190;DHT22;40340;53.208;6.582;2022-09-27T05:20:18;9.40;99.90
54190;DHT22;40340;53.208;6.582;2022-09-27T05:22:44;9.40;99.90
54190;DHT22;40340;53.208;6.582;2022-09-27T05:25:10;9.40;99.90
54190;DHT22;40340;53.208;6.582;2022-09-27T05:27:36;9.30;99.90
54190;DHT22;40340;53.208;6.582;2022-09-27T05:30:03;9.30;99.90
54190;DHT22;40340;53.208;6.582;2022-09-27T05:32:29;9.40;99.90
54190;DHT22;40340;53.208;6.582;2022-09-27T05:34:54;9.40;99.90
54190;DHT22;40340;53.208;6.582;2022-09-27T05:37:20;9.30;99.90
54190;DHT22;40340;53.208;6.582;2022-09-27T05:39:46;9.30;99.90
54190;DHT22;40340;53.208;6.582;2022-09-27T05:42:12;9.20;99.90
54190;DHT22;40340;53.208;6.582;2022-09-27T05:44:38;9.20;99.90
54190;DHT22;40340;53.208;6.582;2022-09-27T05:47:04;9.30;99.90
54190;DHT22;40340;53.208;6.582;2022-09-27T05:49:30;9.30;99.90
54190;DHT22;40340;53.208;6.582;2022-09-27T05:51:56;9.30;99.90
54190;DHT22;40340;53.208;6.582;2022-09-27T05:54:22;9.30;99.90
54190;DHT22;40340;53.208;6.582;2022-09-27T05:56:48;9.30;99.90
54190;DHT22;40340;53.208;6.582;2022-09-27T05:59:13;9.30;99.90
54190;DHT22;40340;53.208;6.582;2022-09-27T06:01:39;9.30;99.90
54190;DHT22;40340;53.208;6.582;2022-09-27T06:04:04;9.30;99.90
54190;DHT22;40340;53.208;6.582;2022-09-27T06:06:30;9.40;99.90
54190;DHT22;40340;53.208;6.582;2022-09-27T06:08:58;9.40;99.90
54190;DHT22;40340;53.208;6.582;2022-09-27T06:11:25;9.40;99.90
54190;DHT22;40340;53.208;6.582;2022-09-27T06:13:52;9.50;99.90
54190;DHT22;40340;53.208;6.582;2022-09-27T06:16:17;9.40;99.90
54190;DHT22;40340;53.208;6.582;2022-09-27T06:18:43;9.40;99.90
54190;DHT22;40340;53.208;6.582;2022-09-27T06:21:08;9.50;99.90
54190;DHT22;40340;53.208;6.582;2022-09-27T06:23:34;9.50;99.90
54190;DHT22;40340;53.208;6.582;2022-09-27T06:26:02;9.40;99.90
54190;DHT22;40340;53.208;6.582;2022-09-27T06:28:28;9.50;99.90
54190;DHT22;40340;53.208;6.582;2022-09-27T06:30:53;9.50;99.90
54190;DHT22;40340;53.208;6.582;2022-09-27T06:33:19;9.50;99.90
54190;DHT22;40340;53.208;6.582;2022-09-27T06:35:46;9.50;99.90
54190;DHT22;40340;53.208;6.582;2022-09-27T06:38:13;9.50;99.90
54190;DHT22;40340;53.208;6.582;2022-09-27T06:40:40;9.50;99.90
54190;DHT22;40340;53.208;6.582;2022-09-27T06:43:10;9.50;99.90
54190;DHT22;40340;53.208;6.582;2022-09-27T06:45:37;9.40;99.90
54190;DHT22;40340;53.208;6.582;2022-09-27T06:48:04;9.40;99.90
54190;DHT22;40340;53.208;6.582;2022-09-27T06:50:33;9.40;99.90
54190;DHT22;40340;53.208;6.582;2022-09-27T06:52:59;9.40;99.90
54190;DHT22;40340;53.208;6.582;2022-09-27T06:55:24;9.40;99.90
54190;DHT22;40340;53.208;6.582;2022-09-27T06:57:54;9.40;99.90
54190;DHT22;40340;53.208;6.582;2022-09-27T07:00:38;9.40;99.90
54190;DHT22;40340;53.208;6.582;2022-09-27T07:03:04;9.40;99.90
54190;DHT22;40340;53.208;6.582;2022-09-27T07:05:30;9.50;99.90
54190;DHT22;40340;53.208;6.582;2022-09-27T07:07:56;9.50;99.90
54190;DHT22;40340;53.208;6.582;2022-09-27T07:10:28;9.50;99.90
54190;DHT22;40340;53.208;6.582;2022-09-27T07:12:55;9.60;99.90
54190;DHT22;40340;53.208;6.582;2022-09-27T07:15:21;9.80;99.90
54190;DHT22;40340;53.208;6.582;2022-09-27T07:17:57;9.50;99.90
54190;DHT22;40340;53.208;6.582;2022-09-27T07:20:24;9.60;99.90
54190;DHT22;40340;53.208;6.582;2022-09-27T07:22:50;9.60;99.90
54190;DHT22;40340;53.208;6.582;2022-09-27T07:25:16;9.60;99.90
54190;DHT22;40340;53.208;6.582;2022-09-27T07:27:42;9.60;99.90
54190;DHT22;40340;53.208;6.582;2022-09-27T07:30:09;9.60;99.90
54190;DHT22;40340;53.208;6.582;2022-09-27T07:32:35;9.60;99.90
54190;DHT22;40340;53.208;6.582;2022-09-27T07:35:02;9.70;99.90
54190;DHT22;40340;53.208;6.582;2022-09-27T07:37:31;9.70;99.90
54190;DHT22;40340;53.208;6.582;2022-09-27T07:39:57;9.90;99.90
54190;DHT22;40340;53.208;6.582;2022-09-27T07:42:23;9.90;99.90
54190;DHT22;40340;53.208;6.582;2022-09-27T07:44:48;10.00;99.90
54190;DHT22;40340;53.208;6.582;2022-09-27T07:47:14;10.10;99.90
54190;DHT22;40340;53.208;6.582;2022-09-27T07:49:39;10.20;99.90
54190;DHT22;40340;53.208;6.582;2022-09-27T07:52:05;10.20;99.90
54190;DHT22;40340;53.208;6.582;2022-09-27T07:54:31;10.30;99.90
54190;DHT22;40340;53.208;6.582;2022-09-27T07:56:56;10.30;99.90
54190;DHT22;40340;53.208;6.582;2022-09-27T07:59:22;10.30;99.90
54190;DHT22;40340;53.208;6.582;2022-09-27T08:01:48;10.40;99.90
54190;DHT22;40340;53.208;6.582;2022-09-27T08:04:13;10.20;99.90
54190;DHT22;40340;53.208;6.582;2022-09-27T08:06:39;10.20;99.90
54190;DHT22;40340;53.208;6.582;2022-09-27T08:09:06;10.10;99.90
54190;DHT22;40340;53.208;6.582;2022-09-27T08:11:34;10.00;99.90
54190;DHT22;40340;53.208;6.582;2022-09-27T08:14:00;10.00;99.90
54190;DHT22;40340;53.208;6.582;2022-09-27T08:16:25;9.90;99.90
54190;DHT22;40340;53.208;6.582;2022-09-27T08:18:52;9.80;99.90
54190;DHT22;40340;53.208;6.582;2022-09-27T08:21:17;9.80;99.90
54190;DHT22;40340;53.208;6.582;2022-09-27T08:23:43;9.70;99.90
54190;DHT22;40340;53.208;6.582;2022-09-27T08:26:08;9.70;99.90
54190;DHT22;40340;53.208;6.582;2022-09-27T08:28:34;9.80;99.90
54190;DHT22;40340;53.208;6.582;2022-09-27T08:30:59;9.80;99.90
54190;DHT22;40340;53.208;6.582;2022-09-27T08:33:25;9.90;99.90
54190;DHT22;40340;53.208;6.582;2022-09-27T08:35:51;10.00;99.90
54190;DHT22;40340;53.208;6.582;2022-09-27T08:38:17;10.10;99.90
54190;DHT22;40340;53.208;6.582;2022-09-27T08:40:45;10.30;99.90
54190;DHT22;40340;53.208;6.582;2022-09-27T08:49:04;10.50;99.90
54190;DHT22;40340;53.208;6.582;2022-09-27T08:51:34;10.60;99.90
54190;DHT22;40340;53.208;6.582;2022-09-27T08:54:36;10.50;99.90
54190;DHT22;40340;53.208;6.582;2022-09-27T08:57:10;10.60;99.90
54190;DHT22;40340;53.208;6.582;2022-09-27T08:59:42;10.70;99.90
54190;DHT22;40340;53.208;6.582;2022-09-27T09:02:17;10.70;99.90
54190;DHT22;40340;53.208;6.582;2022-09-27T09:04:44;10.70;99.90
54190;DHT22;40340;53.208;6.582;2022-09-27T09:10:23;10.70;99.90
54190;DHT22;40340;53.208;6.582;2022-09-27T09:35:16;10.50;99.90
54190;DHT22;40340;53.208;6.582;2022-09-27T09:37:49;10.60;99.90
54190;DHT22;40340;53.208;6.582;2022-09-27T09:40:27;10.60;99.90
54190;DHT22;40340;53.208;6.582;2022-09-27T09:44:00;10.60;99.90
54190;DHT22;40340;53.208;6.582;2022-09-27T09:46:11;10.60;99.90
54190;DHT22;40340;53.208;6.582;2022-09-27T09:48:41;10.50;99.90
54190;DHT22;40340;53.208;6.582;2022-09-27T09:51:16;10.50;99.90
54190;DHT22;40340;53.208;6.582;2022-09-27T09:54:03;10.60;99.90
54190;DHT22;40340;53.208;6.582;2022-09-27T09:56:35;10.50;99.90
54190;DHT22;40340;53.208;6.582;2022-09-27T09:59:18;10.50;99.90
54190;DHT22;40340;53.208;6.582;2022-09-27T10:01:46;10.60;99.90
54190;DHT22;40340;53.208;6.582;2022-09-27T10:04:22;10.80;99.90
54190;DHT22;40340;53.208;6.582;2022-09-27T10:06:49;10.70;99.90
54190;DHT22;40340;53.208;6.582;2022-09-27T10:09:16;10.60;99.90
54190;DHT22;40340;53.208;6.582;2022-09-27T10:11:46;10.50;99.90
54190;DHT22;40340;53.208;6.582;2022-09-27T10:14:15;10.50;99.90
54190;DHT22;40340;53.208;6.582;2022-09-27T10:16:46;10.60;99.90
54190;DHT22;40340;53.208;6.582;2022-09-27T10:19:16;10.50;99.90
54190;DHT22;40340;53.208;6.582;2022-09-27T10:21:44;10.60;99.90
54190;DHT22;40340;53.208;6.582;2022-09-27T10:24:15;10.60;99.90
54190;DHT22;40340;53.208;6.582;2022-09-27T10:26:43;10.60;99.90
54190;DHT22;40340;53.208;6.582;2022-09-27T10:31:45;10.60;99.90
54190;DHT22;40340;53.208;6.582;2022-09-27T10:34:33;10.60;99.90
54190;DHT22;40340;53.208;6.582;2022-09-27T10:39:38;10.70;99.90
54190;DHT22;40340;53.208;6.582;2022-09-27T10:45:28;10.90;99.90
54190;DHT22;40340;53.208;6.582;2022-09-27T10:47:54;11.20;99.90
54190;DHT22;40340;53.208;6.582;2022-09-27T10:50:26;11.30;99.90
54190;DHT22;40340;53.208;6.582;2022-09-27T10:53:02;11.80;99.90
54190;DHT22;40340;53.208;6.582;2022-09-27T10:55:31;12.40;99.90
54190;DHT22;40340;53.208;6.582;2022-09-27T10:57:58;12.80;99.90
54190;DHT22;40340;53.208;6.582;2022-09-27T11:00:42;12.60;99.90
54190;DHT22;40340;53.208;6.582;2022-09-27T11:03:15;12.40;99.90
54190;DHT22;40340;53.208;6.582;2022-09-27T11:05:41;12.10;99.90
54190;DHT22;40340;53.208;6.582;2022-09-27T11:08:30;11.90;99.90
54190;DHT22;40340;53.208;6.582;2022-09-27T11:13:40;11.40;99.90
54190;DHT22;40340;53.208;6.582;2022-09-27T11:16:24;11.10;99.90
54190;DHT22;40340;53.208;6.582;2022-09-27T11:19:12;11.00;99.90
54190;DHT22;40340;53.208;6.582;2022-09-27T11:21:57;10.90;99.90
54190;DHT22;40340;53.208;6.582;2022-09-27T11:30:16;10.50;99.90
54190;DHT22;40340;53.208;6.582;2022-09-27T11:33:10;10.40;99.90
54190;DHT22;40340;53.208;6.582;2022-09-27T11:41:35;10.40;99.90
54190;DHT22;40340;53.208;6.582;2022-09-27T11:44:25;10.50;99.90
54190;DHT22;40340;53.208;6.582;2022-09-27T11:47:16;10.70;99.90
54190;DHT22;40340;53.208;6.582;2022-09-27T11:50:18;11.20;99.90
54190;DHT22;40340;53.208;6.582;2022-09-27T11:52:50;11.80;99.90
54190;DHT22;40340;53.208;6.582;2022-09-27T12:08:49;12.90;99.90
54190;DHT22;40340;53.208;6.582;2022-09-27T12:11:36;12.50;99.90
54190;DHT22;40340;53.208;6.582;2022-09-27T12:14:08;12.10;99.90
54190;DHT22;40340;53.208;6.582;2022-09-27T12:16:38;12.00;99.90
54190;DHT22;40340;53.208;6.582;2022-09-27T12:19:16;11.90;99.90
54190;DHT22;40340;53.208;6.582;2022-09-27T12:21:43;11.90;99.90
54190;DHT22;40340;53.208;6.582;2022-09-27T12:24:21;11.70;99.90
54190;DHT22;40340;53.208;6.582;2022-09-27T12:26:50;11.80;99.90
54190;DHT22;40340;53.208;6.582;2022-09-27T12:29:37;11.80;99.90
54190;DHT22;40340;53.208;6.582;2022-09-27T12:32:14;11.80;99.90
54190;DHT22;40340;53.208;6.582;2022-09-27T12:34:53;11.90;99.90
54190;DHT22;40340;53.208;6.582;2022-09-27T12:37:24;12.00;99.90
54190;DHT22;40340;53.208;6.582;2022-09-27T12:40:14;12.00;99.90
54190;DHT22;40340;53.208;6.582;2022-09-27T12:42:45;12.10;99.90
54190;DHT22;40340;53.208;6.582;2022-09-27T12:45:14;12.10;99.90
54190;DHT22;40340;53.208;6.582;2022-09-27T12:50:23;12.10;99.90
54190;DHT22;40340;53.208;6.582;2022-09-27T12:52:57;12.10;99.90
54190;DHT22;40340;53.208;6.582;2022-09-27T12:55:42;12.10;99.90
54190;DHT22;40340;53.208;6.582;2022-09-27T13:00:58;12.10;99.90
54190;DHT22;40340;53.208;6.582;2022-09-27T13:14:21;12.20;99.90
54190;DHT22;40340;53.208;6.582;2022-09-27T13:16:48;12.20;99.90
54190;DHT22;40340;53.208;6.582;2022-09-27T13:21:59;12.30;99.90
54190;DHT22;40340;53.208;6.582;2022-09-27T13:29:52;12.30;99.90
54190;DHT22;40340;53.208;6.582;2022-09-27T13:32:36;12.50;99.90
54190;DHT22;40340;53.208;6.582;2022-09-27T13:38:21;12.20;99.90
54190;DHT22;40340;53.208;6.582;2022-09-27T13:40:48;11.90;99.90
54190;DHT22;40340;53.208;6.582;2022-09-27T13:43:30;11.80;99.90
54190;DHT22;40340;53.208;6.582;2022-09-27T13:46:05;11.50;99.90
54190;DHT22;40340;53.208;6.582;2022-09-27T13:51:45;11.30;99.90
54190;DHT22;40340;53.208;6.582;2022-09-27T13:57:00;11.00;99.90
54190;DHT22;40340;53.208;6.582;2022-09-27T13:59:45;11.00;99.90
54190;DHT22;40340;53.208;6.582;2022-09-27T14:02:28;11.00;99.90
54190;DHT22;40340;53.208;6.582;2022-09-27T14:04:57;10.90;99.90
54190;DHT22;40340;53.208;6.582;2022-09-27T14:07:30;10.90;99.90
54190;DHT22;40340;53.208;6.582;2022-09-27T14:09:59;10.80;99.90
54190;DHT22;40340;53.208;6.582;2022-09-27T14:12:33;10.90;99.90
54190;DHT22;40340;53.208;6.582;2022-09-27T14:15:02;10.90;99.90
54190;DHT22;40340;53.208;6.582;2022-09-27T14:17:28;10.90;99.90
54190;DHT22;40340;53.208;6.582;2022-09-27T14:19:55;11.00;99.90
54190;DHT22;40340;53.208;6.582;2022-09-27T14:22:22;10.90;99.90
54190;DHT22;40340;53.208;6.582;2022-09-27T14:24:48;11.00;99.90
54190;DHT22;40340;53.208;6.582;2022-09-27T14:27:24;11.00;99.90
54190;DHT22;40340;53.208;6.582;2022-09-27T14:29:53;10.90;99.90
54190;DHT22;40340;53.208;6.582;2022-09-27T14:32:26;10.80;99.90
54190;DHT22;40340;53.208;6.582;2022-09-27T14:35:20;10.90;99.90
54190;DHT22;40340;53.208;6.582;2022-09-27T14:38:07;10.80;99.90
54190;DHT22;40340;53.208;6.582;2022-09-27T14:43:17;10.70;99.90
54190;DHT22;40340;53.208;6.582;2022-09-27T14:45:44;10.80;99.90
54190;DHT22;40340;53.208;6.582;2022-09-27T14:48:19;10.80;99.90
54190;DHT22;40340;53.208;6.582;2022-09-27T14:50:57;10.70;99.90
54190;DHT22;40340;53.208;6.582;2022-09-27T14:53:27;10.80;99.90
54190;DHT22;40340;53.208;6.582;2022-09-27T14:55:53;10.80;99.90
54190;DHT22;40340;53.208;6.582;2022-09-27T14:58:20;10.80;99.90
54190;DHT22;40340;53.208;6.582;2022-09-27T15:00:48;10.90;99.90
54190;DHT22;40340;53.208;6.582;2022-09-27T15:03:27;10.90;99.90
54190;DHT22;40340;53.208;6.582;2022-09-27T15:05:54;10.90;99.90
54190;DHT22;40340;53.208;6.582;2022-09-27T15:08:27;10.90;99.90
54190;DHT22;40340;53.208;6.582;2022-09-27T15:10:59;10.90;99.90
54190;DHT22;40340;53.208;6.582;2022-09-27T15:13:25;11.00;99.90
54190;DHT22;40340;53.208;6.582;2022-09-27T15:15:53;11.00;99.90
54190;DHT22;40340;53.208;6.582;2022-09-27T15:18:41;11.00;99.90
54190;DHT22;40340;53.208;6.582;2022-09-27T15:21:09;11.00;99.90
54190;DHT22;40340;53.208;6.582;2022-09-27T15:23:37;10.90;99.90
54190;DHT22;40340;53.208;6.582;2022-09-27T15:28:29;10.90;99.90
54190;DHT22;40340;53.208;6.582;2022-09-27T15:30:56;11.00;99.90
54190;DHT22;40340;53.208;6.582;2022-09-27T15:33:29;11.00;99.90
54190;DHT22;40340;53.208;6.582;2022-09-27T15:36:05;11.00;99.90
54190;DHT22;40340;53.208;6.582;2022-09-27T15:38:33;11.00;99.90
54190;DHT22;40340;53.208;6.582;2022-09-27T15:41:10;11.00;99.90
54190;DHT22;40340;53.208;6.582;2022-09-27T15:43:39;11.00;99.90
54190;DHT22;40340;53.208;6.582;2022-09-27T15:49:16;11.00;99.90
54190;DHT22;40340;53.208;6.582;2022-09-27T15:51:44;11.10;99.90
54190;DHT22;40340;53.208;6.582;2022-09-27T15:54:10;11.00;99.90
54190;DHT22;40340;53.208;6.582;2022-09-27T15:56:39;11.00;99.90
54190;DHT22;40340;53.208;6.582;2022-09-27T15:59:06;11.00;99.90
54190;DHT22;40340;53.208;6.582;2022-09-27T16:01:37;11.10;99.90
54190;DHT22;40340;53.208;6.582;2022-09-27T16:04:06;11.10;99.90
54190;DHT22;40340;53.208;6.582;2022-09-27T16:06:32;11.00;99.90
54190;DHT22;40340;53.208;6.582;2022-09-27T16:08:58;11.10;99.90
54190;DHT22;40340;53.208;6.582;2022-09-27T16:11:23;11.00;99.90
54190;DHT22;40340;53.208;6.582;2022-09-27T16:13:49;11.00;99.90
54190;DHT22;40340;53.208;6.582;2022-09-27T16:16:18;11.00;99.90
54190;DHT22;40340;53.208;6.582;2022-09-27T16:18:45;11.00;99.90
54190;DHT22;40340;53.208;6.582;2022-09-27T16:21:11;11.00;99.90
54190;DHT22;40340;53.208;6.582;2022-09-27T16:23:37;11.00;99.90
54190;DHT22;40340;53.208;6.582;2022-09-27T16:26:04;10.90;99.90
54190;DHT22;40340;53.208;6.582;2022-09-27T16:28:30;11.00;99.90
54190;DHT22;40340;53.208;6.582;2022-09-27T16:31:00;10.90;99.90
54190;DHT22;40340;53.208;6.582;2022-09-27T16:33:28;10.90;99.90
54190;DHT22;40340;53.208;6.582;2022-09-27T16:35:57;10.80;99.90
54190;DHT22;40340;53.208;6.582;2022-09-27T16:38:23;10.80;99.90
54190;DHT22;40340;53.208;6.582;2022-09-27T16:40:51;11.00;99.90
54190;DHT22;40340;53.208;6.582;2022-09-27T16:43:17;10.80;99.90
54190;DHT22;40340;53.208;6.582;2022-09-27T16:45:45;10.80;99.90
54190;DHT22;40340;53.208;6.582;2022-09-27T16:48:11;10.70;99.90
54190;DHT22;40340;53.208;6.582;2022-09-27T16:50:36;10.70;99.90
54190;DHT22;40340;53.208;6.582;2022-09-27T16:53:20;10.60;99.90
54190;DHT22;40340;53.208;6.582;2022-09-27T16:55:46;10.70;99.90
54190;DHT22;40340;53.208;6.582;2022-09-27T16:58:12;10.60;99.90
54190;DHT22;40340;53.208;6.582;2022-09-27T17:00:37;10.60;99.90
54190;DHT22;40340;53.208;6.582;2022-09-27T17:03:05;10.50;99.90
54190;DHT22;40340;53.208;6.582;2022-09-27T17:05:31;10.50;99.90
54190;DHT22;40340;53.208;6.582;2022-09-27T17:07:56;10.40;99.90
54190;DHT22;40340;53.208;6.582;2022-09-27T17:10:22;10.30;99.90
54190;DHT22;40340;53.208;6.582;2022-09-27T17:12:48;10.20;99.90
54190;DHT22;40340;53.208;6.582;2022-09-27T17:15:15;10.10;99.90
54190;DHT22;40340;53.208;6.582;2022-09-27T17:17:41;10.10;99.90
54190;DHT22;40340;53.208;6.582;2022-09-27T17:20:06;10.00;99.90
54190;DHT22;40340;53.208;6.582;2022-09-27T17:22:32;10.00;99.90
54190;DHT22;40340;53.208;6.582;2022-09-27T17:24:58;9.90;99.90
54190;DHT22;40340;53.208;6.582;2022-09-27T17:27:25;9.90;99.90
54190;DHT22;40340;53.208;6.582;2022-09-27T17:29:51;9.80;99.90
54190;DHT22;40340;53.208;6.582;2022-09-27T17:32:17;9.80;99.90
54190;DHT22;40340;53.208;6.582;2022-09-27T17:34:46;9.70;99.90
54190;DHT22;40340;53.208;6.582;2022-09-27T17:37:12;9.70;99.90
54190;DHT22;40340;53.208;6.582;2022-09-27T17:39:38;9.60;99.90
54190;DHT22;40340;53.208;6.582;2022-09-27T17:42:03;9.50;99.90
54190;DHT22;40340;53.208;6.582;2022-09-27T17:44:29;9.50;99.90
54190;DHT22;40340;53.208;6.582;2022-09-27T17:46:55;9.40;99.90
54190;DHT22;40340;53.208;6.582;2022-09-27T17:49:39;9.40;99.90
54190;DHT22;40340;53.208;6.582;2022-09-27T17:52:23;9.30;99.90
54190;DHT22;40340;53.208;6.582;2022-09-27T17:54:50;9.30;99.90
54190;DHT22;40340;53.208;6.582;2022-09-27T17:57:19;9.40;99.90
54190;DHT22;40340;53.208;6.582;2022-09-27T17:59:45;9.30;99.90
54190;DHT22;40340;53.208;6.582;2022-09-27T18:02:10;9.20;99.90
54190;DHT22;40340;53.208;6.582;2022-09-27T18:04:36;9.20;99.90
54190;DHT22;40340;53.208;6.582;2022-09-27T18:07:02;9.20;99.90
54190;DHT22;40340;53.208;6.582;2022-09-27T18:09:27;9.20;99.90
54190;DHT22;40340;53.208;6.582;2022-09-27T18:11:53;9.20;99.90
54190;DHT22;40340;53.208;6.582;2022-09-27T18:14:18;9.20;99.90
54190;DHT22;40340;53.208;6.582;2022-09-27T18:16:45;9.20;99.90
54190;DHT22;40340;53.208;6.582;2022-09-27T18:19:13;9.10;99.90
54190;DHT22;40340;53.208;6.582;2022-09-27T18:21:39;9.10;99.90
54190;DHT22;40340;53.208;6.582;2022-09-27T18:24:05;9.10;99.90
54190;DHT22;40340;53.208;6.582;2022-09-27T18:26:32;9.10;99.90
54190;DHT22;40340;53.208;6.582;2022-09-27T18:29:01;9.20;99.90
54190;DHT22;40340;53.208;6.582;2022-09-27T18:31:27;9.10;99.90